createdAt,value
2019-04-01T00:03:03.923Z,1.80
2019-04-01T00:08:06.949Z,1.70
2019-04-01T00:13:09.760Z,1.50
2019-04-01T00:18:12.612Z,1.50
2019-04-01T00:23:15.390Z,1.40
2019-04-01T00:28:18.167Z,1.20
2019-04-01T00:33:22.075Z,1.00
2019-04-01T00:38:24.850Z,0.90
2019-04-01T00:43:59.453Z,0.70
2019-04-01T00:49:02.278Z,0.70
2019-04-01T00:54:05.103Z,0.60
2019-04-01T00:59:08.039Z,0.60
2019-04-01T01:04:10.795Z,0.50
2019-04-01T01:09:13.649Z,0.60
2019-04-01T01:14:16.501Z,0.60
2019-04-01T01:19:19.271Z,0.70
2019-04-01T01:24:22.101Z,0.90
2019-04-01T01:29:25.462Z,0.90
2019-04-01T01:34:28.362Z,0.90
2019-04-01T01:39:31.141Z,0.90
2019-04-01T01:44:34.062Z,0.90
2019-04-01T01:49:36.745Z,0.80
2019-04-01T01:54:42.519Z,0.60
2019-04-01T01:59:45.398Z,0.40
2019-04-01T02:04:48.108Z,0.20
2019-04-01T02:09:50.848Z,0.00
2019-04-01T02:14:53.665Z,-0.10
2019-04-01T02:19:56.447Z,-0.20
2019-04-01T02:24:59.209Z,-0.30
2019-04-01T02:30:02.088Z,-0.40
2019-04-01T02:35:08.012Z,-0.50
2019-04-01T02:40:11.169Z,-0.60
2019-04-01T02:45:14.363Z,-0.70
2019-04-01T02:50:17.139Z,-0.70
2019-04-01T02:55:19.933Z,-0.80
2019-04-01T03:00:22.720Z,-0.90
2019-04-01T03:11:12.421Z,-0.90
2019-04-01T03:16:15.286Z,-0.90
2019-04-01T03:21:19.369Z,-1.00
2019-04-01T03:26:22.269Z,-1.10
2019-04-01T03:31:25.022Z,-1.20
2019-04-01T03:36:27.838Z,-1.30
2019-04-01T03:41:30.784Z,-1.40
2019-04-01T03:46:33.796Z,-1.40
2019-04-01T03:51:37.630Z,-1.30
2019-04-01T03:56:40.711Z,-1.30
2019-04-01T04:01:43.659Z,-1.30
2019-04-01T04:06:46.383Z,-1.30
2019-04-01T04:11:49.151Z,-1.30
2019-04-01T04:16:52.052Z,-1.30
2019-04-01T04:21:54.726Z,-1.30
2019-04-01T04:26:57.606Z,-1.40
2019-04-01T04:32:00.416Z,-1.40
2019-04-01T04:37:03.239Z,-1.40
2019-04-01T04:42:06.152Z,-1.40
2019-04-01T04:47:08.931Z,-1.30
2019-04-01T04:52:11.863Z,-1.30
2019-04-01T04:57:14.528Z,-1.30
2019-04-01T05:02:17.360Z,-1.30
2019-04-01T05:07:20.146Z,-1.30
2019-04-01T05:12:22.913Z,-1.30
2019-04-01T05:17:25.873Z,-1.30
2019-04-01T05:22:29.470Z,-1.20
2019-04-01T05:27:34.315Z,-1.10
2019-04-01T05:32:39.028Z,-1.10
2019-04-01T05:37:42.006Z,-1.00
2019-04-01T05:42:45.056Z,-0.90
2019-04-01T05:47:50.237Z,-0.70
2019-04-01T05:52:53.240Z,-0.60
2019-04-01T05:57:56.307Z,-0.50
2019-04-01T06:02:59.164Z,-0.30
2019-04-01T06:08:02.751Z,-0.20
2019-04-01T06:13:05.629Z,0.00
2019-04-01T06:18:08.397Z,0.20
2019-04-01T06:23:11.209Z,0.40
2019-04-01T06:28:13.997Z,0.60
2019-04-01T06:33:16.763Z,0.70
2019-04-01T06:38:20.106Z,0.90
2019-04-01T06:43:23.087Z,1.00
2019-04-01T06:48:26.041Z,1.20
2019-04-01T06:53:28.741Z,1.40
2019-04-01T06:58:32.228Z,1.60
2019-04-01T07:03:35.083Z,1.80
2019-04-01T07:08:38.583Z,2.10
2019-04-01T07:13:56.570Z,2.20
2019-04-01T07:19:07.522Z,2.40
2019-04-01T07:24:20.436Z,2.60
2019-04-01T07:29:35.043Z,2.90
2019-04-01T07:34:38.158Z,3.10
2019-04-01T07:39:52.608Z,3.30
2019-04-01T07:44:57.377Z,3.60
2019-04-01T07:50:00.872Z,3.90
2019-04-01T07:55:04.641Z,4.20
2019-04-01T08:00:07.907Z,4.50
2019-04-01T08:05:10.868Z,4.70
2019-04-01T08:10:14.838Z,5.00
2019-04-01T08:15:21.150Z,5.20
2019-04-01T08:20:22.229Z,5.30
2019-04-01T08:25:24.983Z,5.60
2019-04-01T08:30:27.918Z,5.60
2019-04-01T08:35:30.651Z,5.70
2019-04-01T08:40:34.203Z,5.90
2019-04-01T08:45:36.985Z,6.10
2019-04-01T08:50:39.893Z,6.30
2019-04-01T08:55:42.765Z,6.30
2019-04-01T09:00:45.509Z,6.30
2019-04-01T09:05:48.267Z,6.50
2019-04-01T09:10:51.535Z,6.60
2019-04-01T09:15:54.470Z,6.70
2019-04-01T09:20:57.224Z,6.70
2019-04-01T09:25:59.906Z,6.90
2019-04-01T09:31:02.802Z,7.00
2019-04-01T09:36:05.654Z,6.80
2019-04-01T09:41:08.382Z,6.90
2019-04-01T09:46:11.109Z,7.00
2019-04-01T09:51:13.888Z,7.10
2019-04-01T09:56:16.907Z,7.10
2019-04-01T10:01:19.755Z,7.20
2019-04-01T10:06:22.606Z,7.30
2019-04-01T10:11:25.395Z,7.60
2019-04-01T10:16:28.354Z,7.60
2019-04-01T10:21:31.174Z,7.70
2019-04-01T10:26:34.075Z,7.90
2019-04-01T10:31:36.935Z,7.70
2019-04-01T10:36:39.634Z,7.80
2019-04-01T10:41:42.458Z,8.00
2019-04-01T10:46:45.376Z,7.90
2019-04-01T10:51:48.216Z,7.70
2019-04-01T10:56:51.142Z,7.60
2019-04-01T11:01:53.978Z,7.70
2019-04-01T11:06:56.828Z,7.80
2019-04-01T11:11:59.510Z,7.80
2019-04-01T11:17:05.074Z,7.70
2019-04-01T11:22:07.690Z,7.90
2019-04-01T11:27:11.495Z,7.90
2019-04-01T11:32:14.790Z,7.90
2019-04-01T11:37:17.659Z,8.10
2019-04-01T11:42:20.851Z,8.20
2019-04-01T11:47:23.775Z,8.40
2019-04-01T11:52:26.473Z,8.70
2019-04-01T11:57:29.377Z,9.50
2019-04-01T12:02:38.296Z,10.00
2019-04-01T12:07:41.037Z,10.50
2019-04-01T12:12:46.546Z,11.10
2019-04-01T12:17:49.464Z,11.50
2019-04-01T12:22:52.247Z,11.90
2019-04-01T12:27:54.988Z,12.30
2019-04-01T12:32:58.026Z,12.90
2019-04-01T12:38:01.052Z,13.10
2019-04-01T12:43:04.067Z,12.90
2019-04-01T12:48:06.951Z,12.50
2019-04-01T12:53:09.773Z,13.40
2019-04-01T12:58:12.736Z,13.10
2019-04-01T13:03:15.435Z,12.80
2019-04-01T13:08:18.258Z,13.60
2019-04-01T13:13:22.765Z,13.80
2019-04-01T13:18:25.446Z,14.20
2019-04-01T13:23:28.370Z,14.00
2019-04-01T13:28:31.305Z,14.80
2019-04-01T13:33:34.003Z,14.70
2019-04-01T13:38:36.647Z,14.90
2019-04-01T13:43:39.345Z,14.40
2019-04-01T13:48:56.554Z,14.30
2019-04-01T13:53:46.604Z,15.30
2019-04-01T13:58:49.359Z,15.30
2019-04-01T14:03:52.117Z,14.70
2019-04-01T14:08:54.881Z,15.20
2019-04-01T14:13:57.704Z,15.60
2019-04-01T14:19:00.420Z,15.40
2019-04-01T14:24:03.851Z,15.20
2019-04-01T14:29:07.043Z,15.90
2019-04-01T14:34:13.682Z,16.00
2019-04-01T14:39:14.539Z,15.70
2019-04-01T14:44:17.408Z,16.30
2019-04-01T14:49:20.160Z,16.20
2019-04-01T14:54:22.896Z,16.30
2019-04-01T14:59:25.791Z,16.80
2019-04-01T15:04:28.592Z,16.60
2019-04-01T15:09:31.465Z,16.00
2019-04-01T15:14:34.237Z,15.70
2019-04-01T15:19:37.005Z,15.10
2019-04-01T15:24:39.776Z,15.40
2019-04-01T15:29:42.400Z,15.40
2019-04-01T15:34:45.943Z,15.40
2019-04-01T15:39:49.663Z,16.00
2019-04-01T15:44:53.982Z,15.30
2019-04-01T15:49:57.006Z,15.10
2019-04-01T15:55:02.380Z,13.80
2019-04-01T16:00:05.973Z,12.30
2019-04-01T16:05:11.032Z,10.90
2019-04-01T16:10:16.453Z,9.80
2019-04-01T16:15:19.499Z,9.30
2019-04-01T16:20:44.142Z,9.30
2019-04-01T16:25:55.368Z,9.20
2019-04-01T16:31:03.707Z,9.40
2019-04-01T16:36:07.155Z,9.90
2019-04-01T16:41:22.238Z,10.60
2019-04-01T16:46:52.823Z,11.40
2019-04-01T16:52:02.157Z,12.00
2019-04-01T16:57:20.542Z,12.40
2019-04-01T17:07:58.870Z,9.70
2019-04-01T17:13:11.779Z,8.70
2019-04-01T17:18:22.917Z,8.20
2019-04-01T17:23:33.800Z,7.60
2019-04-01T17:28:37.114Z,7.10
2019-04-01T17:33:40.757Z,6.70
2019-04-01T17:38:44.180Z,6.30
2019-04-01T17:43:46.975Z,5.90
2019-04-01T17:48:49.668Z,5.70
2019-04-01T17:53:52.844Z,5.40
2019-04-01T17:58:55.797Z,5.20
2019-04-01T18:03:58.578Z,5.00
2019-04-01T18:09:02.160Z,4.90
2019-04-01T18:14:08.555Z,4.70
2019-04-01T18:19:11.306Z,4.50
2019-04-01T18:24:14.664Z,4.40
2019-04-01T18:29:17.560Z,4.30
2019-04-01T18:34:21.217Z,4.20
2019-04-01T18:39:24.205Z,4.00
2019-04-01T18:44:27.567Z,3.80
2019-04-01T18:49:31.686Z,3.80
2019-04-01T18:54:34.897Z,3.60
2019-04-01T18:59:41.474Z,3.50
2019-04-01T19:04:48.269Z,3.40
2019-04-01T19:10:05.223Z,3.40
2019-04-01T19:15:02.048Z,3.40
2019-04-01T19:20:05.443Z,3.30
2019-04-01T19:25:09.276Z,3.30
2019-04-01T19:30:14.923Z,3.20
2019-04-01T19:35:19.972Z,3.10
2019-04-01T19:40:23.980Z,3.00
2019-04-01T19:45:27.232Z,3.00
2019-04-01T19:50:31.119Z,3.00
2019-04-01T19:55:35.862Z,3.10
2019-04-01T20:00:40.202Z,3.10
2019-04-01T20:05:43.687Z,3.10
2019-04-01T20:10:46.754Z,3.00
2019-04-01T20:15:49.585Z,3.00
2019-04-01T20:20:52.840Z,3.00
2019-04-01T20:25:55.771Z,3.00
2019-04-01T20:30:59.461Z,3.00
2019-04-01T20:36:02.480Z,2.90
2019-04-01T20:41:05.224Z,2.90
2019-04-01T20:46:08.618Z,2.80
2019-04-01T20:51:12.790Z,2.80
2019-04-01T20:56:16.069Z,2.80
2019-04-01T21:01:18.944Z,2.70
2019-04-01T21:06:22.418Z,2.50
2019-04-01T21:11:25.903Z,2.40
2019-04-01T21:16:28.803Z,2.20
2019-04-01T21:21:31.693Z,2.20
2019-04-01T21:26:34.615Z,2.10
2019-04-01T21:31:38.526Z,2.00
2019-04-01T21:36:41.425Z,2.10
2019-04-01T21:41:44.267Z,2.30
2019-04-01T21:46:47.942Z,2.50
2019-04-01T21:51:50.707Z,2.60
2019-04-01T21:56:53.691Z,2.70
2019-04-01T22:01:57.191Z,2.80
2019-04-01T22:07:00.133Z,2.80
2019-04-01T22:12:03.007Z,2.80
2019-04-01T22:17:06.588Z,2.80
2019-04-01T22:22:10.564Z,2.80
2019-04-01T22:27:13.495Z,2.70
2019-04-01T22:32:16.294Z,2.70
2019-04-01T22:37:27.081Z,2.70
2019-04-01T22:42:27.062Z,2.60
2019-04-01T22:47:29.837Z,2.60
2019-04-01T22:52:33.056Z,2.50
2019-04-01T22:57:35.882Z,2.50
2019-04-01T23:02:38.748Z,2.50
2019-04-01T23:07:41.710Z,2.40
2019-04-01T23:12:44.753Z,2.40
2019-04-01T23:17:47.494Z,2.30
2019-04-01T23:22:50.291Z,2.30
2019-04-01T23:27:55.537Z,2.30
2019-04-01T23:33:00.950Z,2.20
2019-04-01T23:38:03.695Z,2.20
2019-04-01T23:43:06.434Z,2.20
2019-04-01T23:48:09.255Z,2.20
2019-04-01T23:53:12.082Z,2.10
2019-04-01T23:58:15.049Z,2.10
